Time;durP1;ratioP1;P1;durP2;ratioP2;P2;SDS_P1;SDS_P2;PMS_P1;PMS_P2;Temp;Humidity;BMP_temperature;BMP_pressure;BME280_temperature;BME280_humidity;BME280_pressure;Samples;Min_cycle;Max_cycle;Signal;HPM_P1;HPM_P2
2023/06/27 00:01:39;;;;;;;;;;;;;;;;;;5033039;28;20017;-69
2023/06/27 00:04:06;;;;;;;;;;;;;;;;;;5033049;28;19932;-69
2023/06/27 00:06:37;;;;;;;;;;;;;;;;;;5033146;28;19925;-69
2023/06/27 00:09:05;;;;;;;;;;;;;;;;;;5033022;28;19964;-69
2023/06/27 00:11:32;;;;;;;;;;;;;;;;;;5032953;28;19983;-68
2023/06/27 00:14:00;;;;;;;;;;;;;;;;;;5040937;28;20023;-68
2023/06/27 00:16:32;;;;;;;;;;;;;;;;;;5053070;28;19931;-68
2023/06/27 00:19:03;;;;;;;;;;;;;;;;;;5052833;28;19958;-68
2023/06/27 00:21:30;;;;;;;;;;;;;;;;;;5036305;28;19925;-68
2023/06/27 00:23:57;;;;;;;;;;;;;;;;;;5033164;28;19925;-68
2023/06/27 00:26:24;;;;;;;;;;;;;;;;;;5033009;28;19925;-68
2023/06/27 00:28:51;;;;;;;;;;;;;;;;;;5033103;28;19972;-68
2023/06/27 00:31:19;;;;;;;;;;;;;;;;;;5033133;28;20416;-68
2023/06/27 00:33:45;;;;;;;;;;;;;;;;;;5033121;28;20011;-68
2023/06/27 00:36:12;;;;;;;;;;;;;;;;;;5032790;28;19983;-68
2023/06/27 00:38:39;;;;;;;;;;;;;;;;;;5032835;28;20032;-69
2023/06/27 00:41:06;;;;;;;;;;;;;;;;;;5032618;28;20000;-69
2023/06/27 00:43:33;;;;;;;;;;;;;;;;;;5032690;28;20016;-69
2023/06/27 00:46:00;;;;;;;;;;;;;;;;;;5032832;28;19925;-69
2023/06/27 00:48:27;;;;;;;;;;;;;;;;;;5033337;28;20525;-68
2023/06/27 00:50:54;;;;;;;;;;;;;;;;;;5032693;28;20040;-69
2023/06/27 00:53:21;;;;;;;;;;;;;;;;;;5032742;28;19963;-69
2023/06/27 00:55:48;;;;;;;;;;;;;;;;;;5032978;28;20015;-69
2023/06/27 00:58:15;;;;;;;;;;;;;;;;;;5032180;28;19957;-68
2023/06/27 01:00:42;;;;;;;;;;;;;;;;;;5031997;28;20027;-69
2023/06/27 01:03:09;;;;;;;;;;;;;;;;;;5032329;28;19925;-69
2023/06/27 01:05:36;;;;;;;;;;;;;;;;;;5032319;28;20012;-69
2023/06/27 01:08:03;;;;;;;;;;;;;;;;;;5034091;28;20439;-69
2023/06/27 01:10:30;;;;;;;;;;;;;;;;;;5036134;28;20012;-69
2023/06/27 01:12:57;;;;;;;;;;;;;;;;;;5036246;28;19932;-69
2023/06/27 01:15:24;;;;;;;;;;;;;;;;;;5036325;28;20450;-68
2023/06/27 01:17:51;;;;;;;;;;;;;;;;;;5036258;28;20028;-69
2023/06/27 01:20:18;;;;;;;;;;;;;;;;;;5036557;28;19961;-68
2023/06/27 01:22:45;;;;;;;;;;;;;;;;;;5036991;28;19925;-69
2023/06/27 01:25:12;;;;;;;;;;;;;;;;;;5036145;28;20020;-69
2023/06/27 01:27:39;;;;;;;;;;;;;;;;;;5035768;28;19979;-69
2023/06/27 01:30:06;;;;;;;;;;;;;;;;;;5036576;28;19986;-69
2023/06/27 01:32:33;;;;;;;;;;;;;;;;;;5036505;28;19925;-68
2023/06/27 01:35:00;;;;;;;;;;;;;;;;;;5036090;28;19925;-68
2023/06/27 01:37:27;;;;;;;;;;;;;;;;;;5036009;28;20023;-68
2023/06/27 01:39:54;;;;;;;;;;;;;;;;;;5036588;28;20036;-69
2023/06/27 01:42:21;;;;;;;;;;;;;;;;;;5035521;28;20016;-69
2023/06/27 01:44:48;;;;;;;;;;;;;;;;;;5036039;28;20030;-69
2023/06/27 01:47:15;;;;;;;;;;;;;;;;;;5035881;28;19963;-69
2023/06/27 01:49:42;;;;;;;;;;;;;;;;;;5035477;28;19963;-69
2023/06/27 01:52:09;;;;;;;;;;;;;;;;;;5035572;28;19957;-69
2023/06/27 01:54:36;;;;;;;;;;;;;;;;;;5034861;28;19979;-69
2023/06/27 01:57:03;;;;;;;;;;;;;;;;;;5038884;28;20353;-69
2023/06/27 01:59:30;;;;;;;;;;;;;;;;;;5035987;28;19929;-70
2023/06/27 02:01:57;;;;;;;;;;;;;;;;;;5020661;28;19972;-68
2023/06/27 02:04:24;;;;;;;;;;;;;;;;;;5035300;28;19925;-69
2023/06/27 02:06:51;;;;;;;;;;;;;;;;;;5035469;28;19952;-69
2023/06/27 02:09:18;;;;;;;;;;;;;;;;;;5035131;28;20023;-69
2023/06/27 02:11:45;;;;;;;;;;;;;;;;;;5034429;28;19996;-69
2023/06/27 02:14:12;;;;;;;;;;;;;;;;;;5045823;28;20024;-68
2023/06/27 02:16:39;;;;;;;;;;;;;;;;;;5034518;28;20468;-68
2023/06/27 02:19:06;;;;;;;;;;;;;;;;;;5034566;28;20627;-68
2023/06/27 02:21:33;;;;;;;;;;;;;;;;;;5035134;28;19964;-68
2023/06/27 02:24:00;;;;;;;;;;;;;;;;;;5034784;28;20059;-68
2023/06/27 02:26:27;;;;;;;;;;;;;;;;;;5034890;28;20115;-68
2023/06/27 02:28:54;;;;;;;;;;;;;;;;;;5034396;28;20457;-69
2023/06/27 02:31:22;;;;;;;;;;;;;;;;;;5040196;28;20363;-69
2023/06/27 02:33:49;;;;;;;;;;;;;;;;;;5034168;28;20016;-69
2023/06/27 02:36:16;;;;;;;;;;;;;;;;;;5034643;28;19968;-68
2023/06/27 02:38:43;;;;;;;;;;;;;;;;;;5034759;28;20011;-69
2023/06/27 02:41:10;;;;;;;;;;;;;;;;;;5034340;28;19940;-69
2023/06/27 02:43:37;;;;;;;;;;;;;;;;;;5034679;28;20467;-69
2023/06/27 02:46:04;;;;;;;;;;;;;;;;;;5035206;28;19929;-68
2023/06/27 02:48:31;;;;;;;;;;;;;;;;;;5037069;28;19932;-68
2023/06/27 02:50:58;;;;;;;;;;;;;;;;;;5034221;28;19926;-68
2023/06/27 02:53:26;;;;;;;;;;;;;;;;;;5034554;28;20336;-68
2023/06/27 02:55:53;;;;;;;;;;;;;;;;;;5033870;28;20347;-68
2023/06/27 02:58:20;;;;;;;;;;;;;;;;;;5034488;28;19969;-68
2023/06/27 03:00:47;;;;;;;;;;;;;;;;;;5034289;28;20447;-68
2023/06/27 03:03:14;;;;;;;;;;;;;;;;;;5034553;28;20029;-68
2023/06/27 03:05:41;;;;;;;;;;;;;;;;;;5034189;28;20416;-68
2023/06/27 03:08:08;;;;;;;;;;;;;;;;;;5034375;28;20364;-68
2023/06/27 03:10:35;;;;;;;;;;;;;;;;;;5034670;28;20063;-68
2023/06/27 03:13:02;;;;;;;;;;;;;;;;;;5043692;28;19964;-68
2023/06/27 03:15:29;;;;;;;;;;;;;;;;;;5053839;28;19932;-68
2023/06/27 03:17:56;;;;;;;;;;;;;;;;;;5054085;28;20360;-68
2023/06/27 03:20:23;;;;;;;;;;;;;;;;;;5050981;28;20013;-68
2023/06/27 03:22:50;;;;;;;;;;;;;;;;;;5034033;28;20380;-68
2023/06/27 03:25:17;;;;;;;;;;;;;;;;;;5031267;28;19925;-68
2023/06/27 03:27:44;;;;;;;;;;;;;;;;;;5032522;28;19960;-68
2023/06/27 03:30:11;;;;;;;;;;;;;;;;;;5032914;28;19948;-68
2023/06/27 03:32:38;;;;;;;;;;;;;;;;;;5032684;28;19925;-68
2023/06/27 03:35:05;;;;;;;;;;;;;;;;;;5033455;28;19925;-68
2023/06/27 03:37:33;;;;;;;;;;;;;;;;;;5032336;28;20050;-68
2023/06/27 03:40:00;;;;;;;;;;;;;;;;;;5033962;28;20368;-68
2023/06/27 03:42:27;;;;;;;;;;;;;;;;;;5031962;28;19983;-68
2023/06/27 03:44:54;;;;;;;;;;;;;;;;;;5033657;28;20412;-68
2023/06/27 03:47:21;;;;;;;;;;;;;;;;;;5031617;28;20548;-68
2023/06/27 03:49:48;;;;;;;;;;;;;;;;;;5045399;28;20023;-68
2023/06/27 03:52:15;;;;;;;;;;;;;;;;;;5053402;28;19928;-68
2023/06/27 03:54:42;;;;;;;;;;;;;;;;;;5050892;28;19931;-69
2023/06/27 03:57:09;;;;;;;;;;;;;;;;;;5039632;28;20281;-69
2023/06/27 03:59:36;;;;;;;;;;;;;;;;;;5032704;28;19925;-68
2023/06/27 04:02:03;;;;;;;;;;;;;;;;;;5031866;28;20024;-69
2023/06/27 04:04:30;;;;;;;;;;;;;;;;;;5032818;28;19964;-68
2023/06/27 04:06:57;;;;;;;;;;;;;;;;;;5022073;28;19964;-68
2023/06/27 04:09:24;;;;;;;;;;;;;;;;;;5033520;28;19971;-69
2023/06/27 04:11:51;;;;;;;;;;;;;;;;;;5033844;28;19932;-68
2023/06/27 04:14:18;;;;;;;;;;;;;;;;;;5033460;28;20012;-70
2023/06/27 04:16:45;;;;;;;;;;;;;;;;;;5031102;28;20015;-68
2023/06/27 04:19:12;;;;;;;;;;;;;;;;;;5031292;28;20028;-69
2023/06/27 04:21:39;;;;;;;;;;;;;;;;;;5032983;28;20002;-68
2023/06/27 04:24:06;;;;;;;;;;;;;;;;;;5038296;28;20020;-68
2023/06/27 04:26:33;;;;;;;;;;;;;;;;;;5032791;28;20031;-68
2023/06/27 04:29:00;;;;;;;;;;;;;;;;;;5041594;28;20039;-68
2023/06/27 04:31:27;;;;;;;;;;;;;;;;;;5052469;28;20054;-68
2023/06/27 04:33:57;;;;;;;;;;;;;;;;;;5035627;28;20479;-69
2023/06/27 04:36:25;;;;;;;;;;;;;;;;;;5031801;28;19932;-68
2023/06/27 04:38:52;;;;;;;;;;;;;;;;;;5030265;28;19926;-69
2023/06/27 04:41:19;;;;;;;;;;;;;;;;;;5031759;28;19968;-69
2023/06/27 04:43:46;;;;;;;;;;;;;;;;;;5032196;28;20027;-68
2023/06/27 04:46:13;;;;;;;;;;;;;;;;;;5041953;28;20020;-68
2023/06/27 04:48:40;;;;;;;;;;;;;;;;;;5038163;28;20447;-68
2023/06/27 04:51:07;;;;;;;;;;;;;;;;;;5031966;28;19932;-69
2023/06/27 04:53:34;;;;;;;;;;;;;;;;;;5031921;28;20015;-68
2023/06/27 04:56:01;;;;;;;;;;;;;;;;;;5032038;28;20393;-68
2023/06/27 04:58:28;;;;;;;;;;;;;;;;;;5032151;28;20380;-69
2023/06/27 05:00:55;;;;;;;;;;;;;;;;;;5032235;28;20153;-68
2023/06/27 05:03:22;;;;;;;;;;;;;;;;;;5043110;28;19978;-69
2023/06/27 05:05:49;;;;;;;;;;;;;;;;;;5052011;28;20023;-68
2023/06/27 05:08:16;;;;;;;;;;;;;;;;;;5051826;28;19972;-69
2023/06/27 05:10:43;;;;;;;;;;;;;;;;;;5052315;28;19978;-69
2023/06/27 05:13:10;;;;;;;;;;;;;;;;;;5052428;28;20027;-68
2023/06/27 05:15:37;;;;;;;;;;;;;;;;;;5051977;28;19968;-68
2023/06/27 05:18:04;;;;;;;;;;;;;;;;;;5052191;28;19960;-68
2023/06/27 05:20:31;;;;;;;;;;;;;;;;;;5051050;28;19956;-68
2023/06/27 05:22:58;;;;;;;;;;;;;;;;;;5051915;28;19972;-69
2023/06/27 05:25:25;;;;;;;;;;;;;;;;;;5051912;28;19960;-68
2023/06/27 05:27:52;;;;;;;;;;;;;;;;;;5048778;28;20032;-68
2023/06/27 05:30:19;;;;;;;;;;;;;;;;;;5032267;28;20036;-69
2023/06/27 05:32:46;;;;;;;;;;;;;;;;;;5032246;28;20023;-69
2023/06/27 05:35:13;;;;;;;;;;;;;;;;;;5031234;28;20027;-69
2023/06/27 05:37:40;;;;;;;;;;;;;;;;;;5032108;28;20019;-69
2023/06/27 05:40:08;;;;;;;;;;;;;;;;;;5031740;28;20607;-68
2023/06/27 05:42:35;;;;;;;;;;;;;;;;;;5031959;28;19925;-69
2023/06/27 05:45:02;;;;;;;;;;;;;;;;;;5032192;28;20376;-69
2023/06/27 05:47:29;;;;;;;;;;;;;;;;;;5031844;28;19929;-69
2023/06/27 05:49:56;;;;;;;;;;;;;;;;;;5032357;28;20023;-69
2023/06/27 05:52:23;;;;;;;;;;;;;;;;;;5032102;28;19932;-68
2023/06/27 05:54:50;;;;;;;;;;;;;;;;;;5049802;28;19925;-68
2023/06/27 05:57:18;;;;;;;;;;;;;;;;;;5054620;28;20299;-69
2023/06/27 05:59:45;;;;;;;;;;;;;;;;;;5035825;28;19925;-73
2023/06/27 06:02:12;;;;;;;;;;;;;;;;;;5036031;28;20020;-74
2023/06/27 06:04:39;;;;;;;;;;;;;;;;;;5035538;28;20022;-75
2023/06/27 06:07:06;;;;;;;;;;;;;;;;;;5035001;28;20451;-74
2023/06/27 06:09:36;;;;;;;;;;;;;;;;;;5035209;28;19972;-78
2023/06/27 06:12:03;;;;;;;;;;;;;;;;;;5035420;28;19926;-74
2023/06/27 06:14:30;;;;;;;;;;;;;;;;;;5035362;28;20048;-75
2023/06/27 06:16:57;;;;;;;;;;;;;;;;;;5033967;28;19960;-74
2023/06/27 06:19:24;;;;;;;;;;;;;;;;;;5035094;28;19971;-81
2023/06/27 06:21:51;;;;;;;;;;;;;;;;;;5035179;28;20010;-81
2023/06/27 06:24:18;;;;;;;;;;;;;;;;;;5029255;28;20265;-80
2023/06/27 06:26:45;;;;;;;;;;;;;;;;;;5024343;28;20040;-75
2023/06/27 06:29:13;;;;;;;;;;;;;;;;;;5031409;28;19969;-75
2023/06/27 06:31:40;;;;;;;;;;;;;;;;;;5032092;28;20380;-74
2023/06/27 06:34:07;;;;;;;;;;;;;;;;;;5034454;28;20362;-75
2023/06/27 06:36:34;;;;;;;;;;;;;;;;;;5034583;28;20021;-73
2023/06/27 06:39:01;;;;;;;;;;;;;;;;;;5033778;28;20015;-74
2023/06/27 06:41:28;;;;;;;;;;;;;;;;;;5031746;28;19925;-74
2023/06/27 06:46:26;;;;;;;;;;;;;;;;;;5075685;22;19925;-74
2023/06/27 06:48:52;;;;;;;;;;;;;;;;;;5070602;28;20019;-74
2023/06/27 06:51:22;;;;;;;;;;;;;;;;;;5066173;28;20019;-74
2023/06/27 06:53:49;;;;;;;;;;;;;;;;;;5066129;28;19928;-72
2023/06/27 06:56:16;;;;;;;;;;;;;;;;;;5064829;28;20594;-70
2023/06/27 06:58:43;;;;;;;;;;;;;;;;;;5068733;28;20042;-69
2023/06/27 07:01:10;;;;;;;;;;;;;;;;;;5072669;28;20049;-71
2023/06/27 07:03:37;;;;;;;;;;;;;;;;;;5071651;28;20008;-71
2023/06/27 07:06:04;;;;;;;;;;;;;;;;;;5070147;28;19930;-71
2023/06/27 07:08:31;;;;;;;;;;;;;;;;;;5072613;28;19979;-71
2023/06/27 07:10:58;;;;;;;;;;;;;;;;;;5070267;28;20055;-73
2023/06/27 07:13:25;;;;;;;;;;;;;;;;;;5072179;28;20011;-71
2023/06/27 07:15:52;;;;;;;;;;;;;;;;;;5072771;28;19979;-71
2023/06/27 07:18:19;;;;;;;;;;;;;;;;;;5068427;28;20051;-70
2023/06/27 07:20:46;;;;;;;;;;;;;;;;;;5065806;28;19967;-69
2023/06/27 07:23:15;;;;;;;;;;;;;;;;;;5066744;28;20553;-70
2023/06/27 07:25:42;;;;;;;;;;;;;;;;;;5057642;28;19928;-69
2023/06/27 07:28:09;;;;;;;;;;;;;;;;;;5059378;28;20020;-70
2023/06/27 07:30:36;;;;;;;;;;;;;;;;;;5063584;28;19925;-70
2023/06/27 07:33:04;;;;;;;;;;;;;;;;;;5066129;28;19924;-70
2023/06/27 07:35:31;;;;;;;;;;;;;;;;;;5064475;28;20758;-70
2023/06/27 07:37:58;;;;;;;;;;;;;;;;;;5063677;28;19929;-70
2023/06/27 07:40:25;;;;;;;;;;;;;;;;;;5066279;28;19986;-71
2023/06/27 07:42:52;;;;;;;;;;;;;;;;;;5063407;28;20410;-70
2023/06/27 07:45:19;;;;;;;;;;;;;;;;;;5066965;28;19932;-70
2023/06/27 07:47:46;;;;;;;;;;;;;;;;;;5063429;23;19932;-70
2023/06/27 07:50:13;;;;;;;;;;;;;;;;;;5029149;28;19959;-70
2023/06/27 07:52:42;;;;;;;;;;;;;;;;;;5030415;28;19978;-70
2023/06/27 07:55:10;;;;;;;;;;;;;;;;;;5029091;28;19932;-69
2023/06/27 07:57:37;;;;;;;;;;;;;;;;;;5030429;28;19925;-70
2023/06/27 08:00:04;;;;;;;;;;;;;;;;;;5030048;28;19983;-74
2023/06/27 08:02:31;;;;;;;;;;;;;;;;;;5028208;28;19925;-68
2023/06/27 08:04:59;;;;;;;;;;;;;;;;;;5032082;28;20331;-68
2023/06/27 08:07:26;;;;;;;;;;;;;;;;;;5032168;28;20024;-69
2023/06/27 08:09:53;;;;;;;;;;;;;;;;;;5029343;28;20476;-69
2023/06/27 08:12:20;;;;;;;;;;;;;;;;;;5031248;28;19999;-69
2023/06/27 08:14:47;;;;;;;;;;;;;;;;;;5030292;28;19995;-69
2023/06/27 08:17:14;;;;;;;;;;;;;;;;;;5092973;22;19933;-69
2023/06/27 08:19:41;;;;;;;;;;;;;;;;;;5040688;28;19947;-69
2023/06/27 08:22:08;;;;;;;;;;;;;;;;;;5037552;28;19932;-68
2023/06/27 08:24:36;;;;;;;;;;;;;;;;;;5028918;28;19929;-73
2023/06/27 08:27:03;;;;;;;;;;;;;;;;;;5034589;28;19925;-73
2023/06/27 08:29:30;;;;;;;;;;;;;;;;;;5038143;28;19947;-74
2023/06/27 08:31:59;;;;;;;;;;;;;;;;;;5039208;28;19972;-71
2023/06/27 08:34:26;;;;;;;;;;;;;;;;;;5040676;28;20035;-73
2023/06/27 08:36:54;;;;;;;;;;;;;;;;;;5030197;28;20403;-73
2023/06/27 08:39:21;;;;;;;;;;;;;;;;;;5032056;28;19929;-71
2023/06/27 08:41:48;;;;;;;;;;;;;;;;;;5033726;28;21055;-73
2023/06/27 08:44:15;;;;;;;;;;;;;;;;;;5040967;23;20022;-73
2023/06/27 08:46:42;;;;;;;;;;;;;;;;;;5044072;28;20288;-74
2023/06/27 08:49:08;;;;;;;;;;;;;;;;;;5038900;28;20333;-74
2023/06/27 08:51:35;;;;;;;;;;;;;;;;;;5045932;28;20294;-73
2023/06/27 08:54:02;;;;;;;;;;;;;;;;;;5044400;28;20016;-74
2023/06/27 08:56:29;;;;;;;;;;;;;;;;;;5043496;28;20019;-75
2023/06/27 08:58:57;;;;;;;;;;;;;;;;;;5040651;28;19931;-74
2023/06/27 09:01:36;;;;;;;;;;;;;;;;;;5033646;28;19925;-74
2023/06/27 09:04:03;;;;;;;;;;;;;;;;;;5034242;28;20347;-75
2023/06/27 09:06:30;;;;;;;;;;;;;;;;;;5042840;28;19971;-73
2023/06/27 09:08:57;;;;;;;;;;;;;;;;;;5038183;28;20016;-72
2023/06/27 09:11:25;;;;;;;;;;;;;;;;;;5031880;28;20016;-73
2023/06/27 09:13:52;;;;;;;;;;;;;;;;;;5031778;28;19979;-73
2023/06/27 09:16:19;;;;;;;;;;;;;;;;;;5035040;28;20376;-73
2023/06/27 09:18:47;;;;;;;;;;;;;;;;;;5036852;28;20031;-69
2023/06/27 09:21:14;;;;;;;;;;;;;;;;;;5046261;28;19932;-71
2023/06/27 09:23:41;;;;;;;;;;;;;;;;;;5040655;22;19984;-71
2023/06/27 09:26:08;;;;;;;;;;;;;;;;;;5026001;28;19925;-71
2023/06/27 09:28:35;;;;;;;;;;;;;;;;;;5012384;28;19968;-71
2023/06/27 09:31:02;;;;;;;;;;;;;;;;;;5054185;22;19963;-70
2023/06/27 09:33:29;;;;;;;;;;;;;;;;;;5069484;28;20306;-71
2023/06/27 09:35:56;;;;;;;;;;;;;;;;;;5070488;28;19924;-71
2023/06/27 09:38:23;;;;;;;;;;;;;;;;;;5065464;28;19964;-71
2023/06/27 09:40:50;;;;;;;;;;;;;;;;;;5072408;28;20417;-73
2023/06/27 09:43:17;;;;;;;;;;;;;;;;;;5060019;28;20011;-72
2023/06/27 09:45:44;;;;;;;;;;;;;;;;;;5072026;28;20012;-71
2023/06/27 09:48:11;;;;;;;;;;;;;;;;;;5073152;28;19979;-72
2023/06/27 09:50:38;;;;;;;;;;;;;;;;;;5054265;28;19925;-73
2023/06/27 09:53:05;;;;;;;;;;;;;;;;;;5072371;28;19931;-73
2023/06/27 09:55:32;;;;;;;;;;;;;;;;;;5075158;28;19930;-73
2023/06/27 09:57:59;;;;;;;;;;;;;;;;;;5074150;28;20015;-73
2023/06/27 10:00:29;;;;;;;;;;;;;;;;;;5075311;28;20333;-74
2023/06/27 10:02:56;;;;;;;;;;;;;;;;;;5074833;28;19924;-72
2023/06/27 10:05:23;;;;;;;;;;;;;;;;;;5073483;28;19925;-73
2023/06/27 10:07:50;;;;;;;;;;;;;;;;;;5074635;28;19975;-73
2023/06/27 10:10:17;;;;;;;;;;;;;;;;;;5074526;28;19972;-74
2023/06/27 10:12:44;;;;;;;;;;;;;;;;;;5074793;28;20195;-74
2023/06/27 10:15:11;;;;;;;;;;;;;;;;;;5074436;28;20399;-75
2023/06/27 10:17:38;;;;;;;;;;;;;;;;;;5069050;28;19932;-74
2023/06/27 10:20:11;;;;;;;;;;;;;;;;;;5069666;28;19924;-75
2023/06/27 10:22:38;;;;;;;;;;;;;;;;;;5067565;28;19924;-74
2023/06/27 10:25:05;;;;;;;;;;;;;;;;;;5071407;28;19932;-74
2023/06/27 10:27:35;;;;;;;;;;;;;;;;;;5074138;28;19971;-74
2023/06/27 10:30:03;;;;;;;;;;;;;;;;;;5058021;28;19925;-75
2023/06/27 10:32:30;;;;;;;;;;;;;;;;;;5063692;28;19951;-74
2023/06/27 10:34:57;;;;;;;;;;;;;;;;;;5072450;28;19929;-74
2023/06/27 10:37:25;;;;;;;;;;;;;;;;;;5070563;28;19925;-75
2023/06/27 10:39:52;;;;;;;;;;;;;;;;;;5073347;28;20003;-75
2023/06/27 10:42:20;;;;;;;;;;;;;;;;;;5076180;28;19928;-74
2023/06/27 10:44:47;;;;;;;;;;;;;;;;;;5091287;28;20391;-74
2023/06/27 10:47:17;;;;;;;;;;;;;;;;;;5069151;28;19958;-73
2023/06/27 10:49:44;;;;;;;;;;;;;;;;;;5068499;28;19924;-68
2023/06/27 10:52:13;;;;;;;;;;;;;;;;;;5066143;28;19925;-74
2023/06/27 10:54:42;;;;;;;;;;;;;;;;;;5071686;28;19939;-74
2023/06/27 10:57:11;;;;;;;;;;;;;;;;;;5069737;28;19924;-74
2023/06/27 10:59:45;;;;;;;;;;;;;;;;;;5074015;28;20019;-74
2023/06/27 11:02:12;;;;;;;;;;;;;;;;;;5064551;28;20364;-74
2023/06/27 11:04:41;;;;;;;;;;;;;;;;;;5053455;28;19978;-74
2023/06/27 11:07:09;;;;;;;;;;;;;;;;;;5054554;28;19933;-75
2023/06/27 11:09:37;;;;;;;;;;;;;;;;;;5072697;28;20015;-74
2023/06/27 11:12:04;;;;;;;;;;;;;;;;;;5065438;28;19925;-74
2023/06/27 11:14:31;;;;;;;;;;;;;;;;;;5054651;28;20277;-74
2023/06/27 11:16:58;;;;;;;;;;;;;;;;;;5060146;28;19925;-75
2023/06/27 11:19:25;;;;;;;;;;;;;;;;;;5067166;28;19924;-74
2023/06/27 11:21:52;;;;;;;;;;;;;;;;;;5065255;28;19959;-74
2023/06/27 11:24:19;;;;;;;;;;;;;;;;;;5068970;28;19928;-75
2023/06/27 11:26:46;;;;;;;;;;;;;;;;;;5060917;28;19968;-74
2023/06/27 11:29:16;;;;;;;;;;;;;;;;;;5063436;28;19925;-73
2023/06/27 11:31:46;;;;;;;;;;;;;;;;;;5070049;28;20003;-72
2023/06/27 11:34:16;;;;;;;;;;;;;;;;;;5072564;28;20307;-75
2023/06/27 11:36:44;;;;;;;;;;;;;;;;;;5073064;28;20362;-74
2023/06/27 11:39:11;;;;;;;;;;;;;;;;;;5063103;28;19978;-74
2023/06/27 11:41:39;;;;;;;;;;;;;;;;;;5053026;28;19971;-74
2023/06/27 11:44:06;;;;;;;;;;;;;;;;;;5052834;28;19924;-73
2023/06/27 11:46:34;;;;;;;;;;;;;;;;;;5068092;28;19925;-73
2023/06/27 11:49:01;;;;;;;;;;;;;;;;;;5061540;28;19931;-74
2023/06/27 11:51:28;;;;;;;;;;;;;;;;;;5066127;28;19924;-74
2023/06/27 11:53:55;;;;;;;;;;;;;;;;;;5072903;28;20327;-74
2023/06/27 11:56:22;;;;;;;;;;;;;;;;;;5067791;28;19924;-71
2023/06/27 11:58:50;;;;;;;;;;;;;;;;;;5073101;28;19931;-73
2023/06/27 12:01:17;;;;;;;;;;;;;;;;;;5067496;28;20016;-73
2023/06/27 12:03:44;;;;;;;;;;;;;;;;;;5072394;28;20011;-74
2023/06/27 12:06:11;;;;;;;;;;;;;;;;;;5060890;28;20023;-74
2023/06/27 12:08:38;;;;;;;;;;;;;;;;;;5071080;28;20031;-73
2023/06/27 12:11:05;;;;;;;;;;;;;;;;;;5071467;28;19932;-73
2023/06/27 12:13:33;;;;;;;;;;;;;;;;;;5070298;28;19975;-73
2023/06/27 12:16:00;;;;;;;;;;;;;;;;;;5066568;28;20618;-74
2023/06/27 12:18:28;;;;;;;;;;;;;;;;;;5070188;28;20133;-73
2023/06/27 12:20:55;;;;;;;;;;;;;;;;;;5070264;28;20019;-74
2023/06/27 12:23:22;;;;;;;;;;;;;;;;;;5061545;28;19925;-73
2023/06/27 12:25:51;;;;;;;;;;;;;;;;;;5050685;28;20339;-70
2023/06/27 12:28:18;;;;;;;;;;;;;;;;;;5051995;28;19925;-72
2023/06/27 12:30:45;;;;;;;;;;;;;;;;;;5052086;28;19931;-72
2023/06/27 12:33:12;;;;;;;;;;;;;;;;;;5052030;28;20384;-72
2023/06/27 12:35:39;;;;;;;;;;;;;;;;;;5052618;28;19928;-69
2023/06/27 12:38:06;;;;;;;;;;;;;;;;;;5069593;28;19924;-71
2023/06/27 12:40:33;;;;;;;;;;;;;;;;;;5058657;28;20015;-71
2023/06/27 12:43:01;;;;;;;;;;;;;;;;;;5074128;28;19976;-71
2023/06/27 12:45:28;;;;;;;;;;;;;;;;;;5068483;28;19924;-71
2023/06/27 12:47:55;;;;;;;;;;;;;;;;;;5069576;28;19978;-69
2023/06/27 12:50:22;;;;;;;;;;;;;;;;;;5066177;28;20026;-68
2023/06/27 12:52:49;;;;;;;;;;;;;;;;;;5053904;28;20330;-67
2023/06/27 12:55:16;;;;;;;;;;;;;;;;;;5055489;28;20020;-68
2023/06/27 12:57:43;;;;;;;;;;;;;;;;;;5071649;28;19924;-68
2023/06/27 13:00:10;;;;;;;;;;;;;;;;;;5070520;28;20023;-68
2023/06/27 13:02:37;;;;;;;;;;;;;;;;;;5067978;28;20024;-69
2023/06/27 13:05:05;;;;;;;;;;;;;;;;;;5064210;28;19964;-68
2023/06/27 13:07:31;;;;;;;;;;;;;;;;;;5064298;28;20015;-69
2023/06/27 13:09:59;;;;;;;;;;;;;;;;;;5063101;28;19931;-69
2023/06/27 13:12:25;;;;;;;;;;;;;;;;;;5064826;28;20008;-69
2023/06/27 13:14:53;;;;;;;;;;;;;;;;;;5068372;28;19982;-69
2023/06/27 13:17:20;;;;;;;;;;;;;;;;;;5068849;28;19928;-68
2023/06/27 13:19:49;;;;;;;;;;;;;;;;;;5068979;28;20006;-69
2023/06/27 13:22:16;;;;;;;;;;;;;;;;;;5070950;28;19978;-69
2023/06/27 13:24:42;;;;;;;;;;;;;;;;;;5069782;28;19964;-68
2023/06/27 13:27:09;;;;;;;;;;;;;;;;;;5067973;28;20276;-71
2023/06/27 13:29:36;;;;;;;;;;;;;;;;;;5064469;28;20019;-71
2023/06/27 13:32:04;;;;;;;;;;;;;;;;;;5061697;28;19971;-70
2023/06/27 13:34:31;;;;;;;;;;;;;;;;;;5069396;28;19929;-71
2023/06/27 13:36:57;;;;;;;;;;;;;;;;;;5067409;28;20041;-71
2023/06/27 13:39:37;;;;;;;;;;;;;;;;;;5066068;28;19964;-75
2023/06/27 13:42:04;;;;;;;;;;;;;;;;;;5062145;28;19925;-72
2023/06/27 13:44:31;;;;;;;;;;;;;;;;;;5053468;28;20391;-73
2023/06/27 13:46:58;;;;;;;;;;;;;;;;;;5061847;28;19928;-74
2023/06/27 13:49:27;;;;;;;;;;;;;;;;;;5067538;28;19924;-73
2023/06/27 13:51:54;;;;;;;;;;;;;;;;;;5068938;28;19928;-72
2023/06/27 13:54:21;;;;;;;;;;;;;;;;;;5064286;28;19940;-75
2023/06/27 13:56:48;;;;;;;;;;;;;;;;;;5060946;28;19978;-72
2023/06/27 13:59:15;;;;;;;;;;;;;;;;;;5050594;28;19932;-73
2023/06/27 14:01:42;;;;;;;;;;;;;;;;;;5060639;28;19959;-72
2023/06/27 14:04:10;;;;;;;;;;;;;;;;;;5060938;28;20001;-72
2023/06/27 14:06:37;;;;;;;;;;;;;;;;;;5067811;28;19925;-72
2023/06/27 14:09:04;;;;;;;;;;;;;;;;;;5066638;28;19974;-70
2023/06/27 14:11:31;;;;;;;;;;;;;;;;;;5058221;28;20450;-70
2023/06/27 14:13:59;;;;;;;;;;;;;;;;;;5058946;28;19924;-70
2023/06/27 14:16:26;;;;;;;;;;;;;;;;;;5059692;28;19932;-70
2023/06/27 14:18:54;;;;;;;;;;;;;;;;;;5071670;28;20555;-71
2023/06/27 14:21:21;;;;;;;;;;;;;;;;;;5062624;28;20411;-71
2023/06/27 14:23:51;;;;;;;;;;;;;;;;;;5061580;28;19924;-71
2023/06/27 14:26:18;;;;;;;;;;;;;;;;;;5074049;28;19931;-71
2023/06/27 14:28:45;;;;;;;;;;;;;;;;;;5073387;28;19928;-71
2023/06/27 14:31:12;;;;;;;;;;;;;;;;;;5074837;28;19964;-72
2023/06/27 14:33:39;;;;;;;;;;;;;;;;;;5071148;28;20028;-72
2023/06/27 14:36:06;;;;;;;;;;;;;;;;;;5063019;28;19967;-73
2023/06/27 14:38:33;;;;;;;;;;;;;;;;;;5058627;28;19932;-72
2023/06/27 14:41:00;;;;;;;;;;;;;;;;;;5071414;28;19925;-72
2023/06/27 14:43:27;;;;;;;;;;;;;;;;;;5074090;28;19925;-72
2023/06/27 14:45:54;;;;;;;;;;;;;;;;;;5073876;28;19974;-71
2023/06/27 14:48:21;;;;;;;;;;;;;;;;;;5073873;28;19963;-70
2023/06/27 14:50:48;;;;;;;;;;;;;;;;;;5074368;28;19925;-69
2023/06/27 14:53:15;;;;;;;;;;;;;;;;;;5055244;28;20023;-70
2023/06/27 14:55:42;;;;;;;;;;;;;;;;;;5054499;28;19983;-71
2023/06/27 14:58:09;;;;;;;;;;;;;;;;;;5064459;28;19997;-70
2023/06/27 15:00:36;;;;;;;;;;;;;;;;;;5074120;28;19968;-70
2023/06/27 15:03:03;;;;;;;;;;;;;;;;;;5073878;28;20393;-70
2023/06/27 15:05:30;;;;;;;;;;;;;;;;;;5073632;28;19924;-70
2023/06/27 15:07:57;;;;;;;;;;;;;;;;;;5073666;28;20363;-71
2023/06/27 15:10:26;;;;;;;;;;;;;;;;;;5072752;28;21692;-70
2023/06/27 15:12:53;;;;;;;;;;;;;;;;;;5060836;28;20475;-70
2023/06/27 15:15:20;;;;;;;;;;;;;;;;;;5067578;28;19970;-70
2023/06/27 15:17:47;;;;;;;;;;;;;;;;;;5073820;28;20448;-70
2023/06/27 15:20:14;;;;;;;;;;;;;;;;;;5059915;28;20372;-70
2023/06/27 15:22:41;;;;;;;;;;;;;;;;;;5053467;28;19924;-69
2023/06/27 15:25:09;;;;;;;;;;;;;;;;;;5055664;28;19928;-71
2023/06/27 15:27:36;;;;;;;;;;;;;;;;;;5071769;28;19924;-71
2023/06/27 15:30:03;;;;;;;;;;;;;;;;;;5069707;28;19924;-71
2023/06/27 15:32:30;;;;;;;;;;;;;;;;;;5073423;28;19924;-73
2023/06/27 15:34:57;;;;;;;;;;;;;;;;;;5073219;28;19924;-72
2023/06/27 15:37:24;;;;;;;;;;;;;;;;;;5073453;28;19924;-71
2023/06/27 15:39:53;;;;;;;;;;;;;;;;;;5073173;28;19924;-71
2023/06/27 15:42:20;;;;;;;;;;;;;;;;;;5073066;28;20415;-71
2023/06/27 15:44:47;;;;;;;;;;;;;;;;;;5061328;28;19925;-71
2023/06/27 15:47:14;;;;;;;;;;;;;;;;;;5071195;28;19972;-71
2023/06/27 15:49:41;;;;;;;;;;;;;;;;;;5064288;28;19951;-71
2023/06/27 15:52:08;;;;;;;;;;;;;;;;;;5069419;28;19964;-72
2023/06/27 15:54:35;;;;;;;;;;;;;;;;;;5072972;28;19926;-72
2023/06/27 15:57:02;;;;;;;;;;;;;;;;;;5072858;28;20015;-72
2023/06/27 15:59:29;;;;;;;;;;;;;;;;;;5073027;28;20027;-71
2023/06/27 16:01:56;;;;;;;;;;;;;;;;;;5072897;28;19931;-70
2023/06/27 16:04:23;;;;;;;;;;;;;;;;;;5071294;28;20484;-70
2023/06/27 16:06:50;;;;;;;;;;;;;;;;;;5072246;28;20036;-71
2023/06/27 16:09:17;;;;;;;;;;;;;;;;;;5067203;28;20383;-71
2023/06/27 16:11:44;;;;;;;;;;;;;;;;;;5072655;28;20046;-71
2023/06/27 16:14:11;;;;;;;;;;;;;;;;;;5072679;28;19940;-71
2023/06/27 16:16:39;;;;;;;;;;;;;;;;;;5056385;28;19929;-71
2023/06/27 16:19:06;;;;;;;;;;;;;;;;;;5053512;28;19924;-72
2023/06/27 16:21:36;;;;;;;;;;;;;;;;;;5052238;28;19936;-73
2023/06/27 16:24:03;;;;;;;;;;;;;;;;;;5070409;28;19924;-72
2023/06/27 16:26:30;;;;;;;;;;;;;;;;;;5072106;28;19924;-72
2023/06/27 16:28:57;;;;;;;;;;;;;;;;;;5071997;28;19928;-71
2023/06/27 16:31:24;;;;;;;;;;;;;;;;;;5071393;28;20011;-71
2023/06/27 16:33:51;;;;;;;;;;;;;;;;;;5072032;28;20004;-72
2023/06/27 16:36:19;;;;;;;;;;;;;;;;;;5069564;28;19933;-71
2023/06/27 16:38:46;;;;;;;;;;;;;;;;;;5055175;28;19947;-72
2023/06/27 16:41:13;;;;;;;;;;;;;;;;;;5070630;28;20294;-72
2023/06/27 16:43:40;;;;;;;;;;;;;;;;;;5059650;28;19925;-72
2023/06/27 16:46:07;;;;;;;;;;;;;;;;;;5071355;28;19925;-72
2023/06/27 16:48:34;;;;;;;;;;;;;;;;;;5071413;28;20007;-72